Time;durP1;ratioP1;P1;durP2;ratioP2;P2;SDS_P1;SDS_P2;PMS_P1;PMS_P2;Temp;Humidity;BMP_temperature;BMP_pressure;BME280_temperature;BME280_humidity;BME280_pressure;Samples;Min_cycle;Max_cycle;Signal;HPM_P1;HPM_P2
2023/05/26 00:00:25;;;;;;;18.88;4.00;;;9.10;99.90;;;;;;4059790;29;20048;-85
2023/05/26 00:02:27;;;;;;;22.88;4.53;;;9.10;99.90;;;;;;4059115;29;20055;-86
2023/05/26 00:04:28;;;;;;;20.42;3.80;;;9.10;99.90;;;;;;4058362;29;20045;-85
2023/05/26 00:06:31;;;;;;;26.27;4.40;;;9.10;99.90;;;;;;4055861;29;20103;-85
2023/05/26 00:08:32;;;;;;;47.03;4.97;;;9.10;99.90;;;;;;4056850;29;20032;-85
2023/05/26 00:10:35;;;;;;;16.60;2.90;;;9.00;99.90;;;;;;4056335;29;20045;-84
2023/05/26 00:12:37;;;;;;;17.40;4.00;;;9.10;99.90;;;;;;4056787;29;20073;-85
2023/05/26 00:14:38;;;;;;;19.95;3.05;;;9.10;99.90;;;;;;4057303;29;20044;-85
2023/05/26 00:16:41;;;;;;;16.67;3.20;;;9.00;99.90;;;;;;4039837;29;20056;-84
2023/05/26 00:18:41;;;;;;;20.15;3.05;;;9.00;99.90;;;;;;4040123;29;20097;-85
2023/05/26 00:20:42;;;;;;;18.05;4.03;;;9.00;99.90;;;;;;4056697;29;20056;-85
2023/05/26 00:22:44;;;;;;;28.60;5.68;;;9.00;99.90;;;;;;4057728;29;20040;-85
2023/05/26 00:24:47;;;;;;;27.50;5.55;;;8.90;99.90;;;;;;4056674;29;20383;-85
2023/05/26 00:26:50;;;;;;;19.98;3.72;;;8.90;99.90;;;;;;4057574;29;20119;-85
2023/05/26 00:28:51;;;;;;;15.10;3.40;;;8.80;99.90;;;;;;4056575;29;20084;-85
2023/05/26 00:30:52;;;;;;;35.67;5.00;;;8.80;99.90;;;;;;4056582;29;20564;-85
2023/05/26 00:32:53;;;;;;;17.27;3.60;;;8.90;99.90;;;;;;4057521;29;20389;-85
2023/05/26 00:34:53;;;;;;;19.98;3.72;;;8.80;99.90;;;;;;4056410;29;20117;-85
2023/05/26 00:36:54;;;;;;;18.00;2.75;;;8.80;99.90;;;;;;4057243;29;20036;-86
2023/05/26 00:38:55;;;;;;;16.17;4.20;;;8.70;99.90;;;;;;4049717;29;20057;-84
2023/05/26 00:40:56;;;;;;;15.63;2.60;;;8.70;99.90;;;;;;4041726;29;20140;-84
2023/05/26 00:42:56;;;;;;;19.30;3.05;;;8.80;99.90;;;;;;4040857;29;20051;-85
2023/05/26 00:44:58;;;;;;;18.05;3.05;;;8.70;99.90;;;;;;4042848;29;20037;-85
2023/05/26 00:47:01;;;;;;;19.35;3.33;;;8.70;99.90;;;;;;4042151;29;20053;-84
2023/05/26 00:49:02;;;;;;;16.45;3.00;;;8.70;99.90;;;;;;4040709;29;20458;-85
2023/05/26 00:51:04;;;;;;;18.50;4.13;;;8.60;99.90;;;;;;4026159;29;20046;-85
2023/05/26 00:53:05;;;;;;;19.02;4.55;;;8.60;99.90;;;;;;4041057;29;20109;-85
2023/05/26 00:55:07;;;;;;;20.27;3.50;;;8.60;99.90;;;;;;4042594;29;20045;-84
2023/05/26 00:57:09;;;;;;;12.27;2.95;;;8.60;99.90;;;;;;4040755;29;20049;-84
2023/05/26 00:59:11;;;;;;;19.55;3.80;;;8.50;99.90;;;;;;4042302;29;20087;-84
2023/05/26 01:01:14;;;;;;;18.38;3.08;;;8.50;99.90;;;;;;4042118;29;20045;-85
2023/05/26 01:03:16;;;;;;;18.77;3.00;;;8.50;99.90;;;;;;4041973;29;20100;-85
2023/05/26 01:05:17;;;;;;;25.40;3.83;;;8.50;99.90;;;;;;4040860;29;20053;-84
2023/05/26 01:07:22;;;;;;;22.67;3.97;;;8.50;99.90;;;;;;4040536;29;20105;-85
2023/05/26 01:09:23;;;;;;;14.52;2.53;;;8.40;99.90;;;;;;4025141;29;20049;-85
2023/05/26 01:11:55;;;;;;;23.63;4.05;;;8.40;99.90;;;;;;4035351;29;20048;-84
2023/05/26 01:14:07;;;;;;;19.38;3.45;;;7.60;99.90;;;;;;4041003;29;20049;-85
2023/05/26 01:16:11;;;;;;;15.20;3.45;;;8.40;99.90;;;;;;4041167;29;20063;-85
2023/05/26 01:18:31;;;;;;;27.80;3.10;;;8.30;99.90;;;;;;4041670;29;20052;-85
2023/05/26 01:20:42;;;;;;;20.77;2.95;;;8.30;99.90;;;;;;4041798;29;20048;-85
2023/05/26 01:22:47;;;;;;;18.27;2.53;;;8.30;99.90;;;;;;4041692;29;20113;-85
2023/05/26 01:25:02;;;;;;;14.82;3.65;;;8.30;99.90;;;;;;4041094;29;20081;-84
2023/05/26 01:27:22;;;;;;;20.75;3.33;;;8.30;99.90;;;;;;4041045;29;20076;-84
2023/05/26 01:29:27;;;;;;;28.45;4.30;;;8.20;99.90;;;;;;4041279;29;20056;-85
2023/05/26 01:31:28;;;;;;;17.15;3.67;;;8.20;99.90;;;;;;4042291;29;20052;-85
2023/05/26 01:33:30;;;;;;;23.67;5.30;;;8.20;99.90;;;;;;4024940;29;20049;-84
2023/05/26 01:35:32;;;;;;;24.38;5.07;;;8.20;99.90;;;;;;4009003;29;20091;-84
2023/05/26 01:37:33;;;;;;;14.93;3.33;;;8.20;99.90;;;;;;4034762;29;20049;-84
2023/05/26 01:39:36;;;;;;;18.90;2.90;;;8.20;99.90;;;;;;4040544;29;20061;-84
2023/05/26 01:42:11;;;;;;;20.35;4.10;;;8.30;99.90;;;;;;4041083;29;20498;-84
2023/05/26 01:44:40;;;;;;;20.40;3.25;;;8.10;99.90;;;;;;4040976;29;20071;-85
2023/05/26 01:46:48;;;;;;;20.20;3.63;;;8.20;99.90;;;;;;4040018;29;20117;-84
2023/05/26 01:48:49;;;;;;;17.55;2.80;;;8.10;99.90;;;;;;4040804;29;20056;-85
2023/05/26 01:50:57;;;;;;;45.80;4.95;;;8.10;99.90;;;;;;4041359;29;20053;-85
2023/05/26 01:53:04;;;;;;;33.42;5.20;;;8.00;99.90;;;;;;4040800;29;20057;-85
2023/05/26 01:55:13;;;;;;;17.98;2.70;;;8.00;99.90;;;;;;4040780;29;20154;-85
2023/05/26 01:57:16;;;;;;;22.85;3.97;;;7.90;99.90;;;;;;4041008;29;20052;-84
2023/05/26 01:59:17;;;;;;;21.00;3.05;;;8.00;99.90;;;;;;4040263;29;20508;-85
2023/05/26 02:01:17;;;;;;;17.92;3.45;;;8.10;99.90;;;;;;4040240;29;20053;-85
2023/05/26 02:03:21;;;;;;;18.08;3.83;;;8.10;99.90;;;;;;4040819;29;20403;-85
2023/05/26 02:05:22;;;;;;;22.88;3.75;;;8.00;99.90;;;;;;4041325;29;20093;-85
2023/05/26 02:07:25;;;;;;;34.13;5.05;;;8.00;99.90;;;;;;4041266;29;20045;-84
2023/05/26 02:09:26;;;;;;;17.00;2.78;;;8.00;99.90;;;;;;4040162;29;20052;-84
2023/05/26 02:11:27;;;;;;;20.52;3.50;;;7.90;99.90;;;;;;4025275;29;20069;-85
2023/05/26 02:13:28;;;;;;;19.60;3.67;;;7.90;99.90;;;;;;4035675;29;20406;-84
2023/05/26 02:15:29;;;;;;;28.10;5.20;;;7.90;99.90;;;;;;4025224;29;20151;-84
2023/05/26 02:17:35;;;;;;;23.40;3.03;;;7.80;99.90;;;;;;4035619;29;20095;-84
2023/05/26 02:19:42;;;;;;;23.60;4.05;;;7.90;99.90;;;;;;4040487;29;20056;-84
2023/05/26 02:21:42;;;;;;;19.75;4.60;;;7.80;99.90;;;;;;4041324;29;20048;-85
2023/05/26 02:23:46;;;;;;;20.95;3.45;;;8.00;99.90;;;;;;4040556;29;20091;-85
2023/05/26 02:25:47;;;;;;;17.60;3.17;;;7.90;99.90;;;;;;4042052;29;20090;-85
2023/05/26 02:27:47;;;;;;;16.50;4.45;;;7.90;99.90;;;;;;4039823;29;20128;-85
2023/05/26 02:29:48;;;;;;;19.27;3.30;;;7.80;99.90;;;;;;4040511;29;20055;-85
2023/05/26 02:31:49;;;;;;;23.15;4.47;;;7.80;99.90;;;;;;4041076;29;20048;-85
2023/05/26 02:33:50;;;;;;;22.05;4.43;;;7.80;99.90;;;;;;4040805;29;20127;-84
2023/05/26 02:35:52;;;;;;;17.33;3.65;;;7.70;99.90;;;;;;4041077;29;20117;-85
2023/05/26 02:37:54;;;;;;;22.55;4.00;;;7.80;99.90;;;;;;4040383;29;20059;-85
2023/05/26 02:39:54;;;;;;;23.80;4.50;;;7.70;99.90;;;;;;4040850;29;20520;-85
2023/05/26 02:41:56;;;;;;;12.90;2.75;;;7.70;99.90;;;;;;4025126;29;20076;-85
2023/05/26 02:43:58;;;;;;;22.98;3.45;;;7.70;99.90;;;;;;4037457;29;20045;-84
2023/05/26 02:45:59;;;;;;;15.93;2.65;;;7.70;99.90;;;;;;4040419;29;20096;-84
2023/05/26 02:48:00;;;;;;;17.85;2.67;;;7.70;99.90;;;;;;4025659;29;20120;-85
2023/05/26 02:50:01;;;;;;;10.90;3.17;;;7.70;99.90;;;;;;4040979;29;20053;-85
2023/05/26 02:52:04;;;;;;;16.23;3.70;;;7.70;99.90;;;;;;4052708;29;20049;-86
2023/05/26 02:54:04;;;;;;;19.75;3.70;;;7.70;99.90;;;;;;4051163;29;20044;-85
2023/05/26 02:56:06;;;;;;;18.13;3.78;;;7.70;99.90;;;;;;4041768;29;20056;-85
2023/05/26 02:58:07;;;;;;;15.85;3.33;;;7.70;99.90;;;;;;4040477;29;20045;-85
2023/05/26 03:00:10;;;;;;;22.10;5.15;;;7.70;99.90;;;;;;4041230;29;20173;-85
2023/05/26 03:02:12;;;;;;;18.15;3.38;;;7.60;99.90;;;;;;4041349;29;20064;-85
2023/05/26 03:04:13;;;;;;;17.60;3.90;;;7.60;99.90;;;;;;4024279;29;20050;-85
2023/05/26 03:06:13;;;;;;;19.70;3.15;;;7.60;99.90;;;;;;4040774;29;20084;-85
2023/05/26 03:08:15;;;;;;;22.55;3.47;;;7.60;99.90;;;;;;4040595;29;20084;-85
2023/05/26 03:10:16;;;;;;;14.20;2.22;;;7.70;99.90;;;;;;4040799;29;20049;-84
2023/05/26 03:12:18;;;;;;;17.45;3.25;;;7.80;99.90;;;;;;4040063;29;20051;-86
2023/05/26 03:14:20;;;;;;;14.68;2.72;;;7.60;99.90;;;;;;4040902;29;20124;-85
2023/05/26 03:16:23;;;;;;;20.75;3.83;;;7.50;99.90;;;;;;4040821;29;20037;-86
2023/05/26 03:18:25;;;;;;;13.57;2.72;;;7.50;99.90;;;;;;4040530;29;20409;-85
2023/05/26 03:20:25;;;;;;;19.15;4.25;;;7.50;99.90;;;;;;4040253;29;20053;-84
2023/05/26 03:22:27;;;;;;;15.18;3.00;;;7.50;99.90;;;;;;4040523;29;20053;-85
2023/05/26 03:24:29;;;;;;;14.82;2.78;;;7.50;99.90;;;;;;4041065;29;20435;-85
2023/05/26 03:26:31;;;;;;;14.10;2.85;;;7.50;99.90;;;;;;4023342;29;20061;-86
2023/05/26 03:28:32;;;;;;;19.20;4.03;;;7.50;99.90;;;;;;4035431;29;20553;-85
2023/05/26 03:30:33;;;;;;;18.88;3.50;;;7.50;99.90;;;;;;4040169;29;20052;-85
2023/05/26 03:32:34;;;;;;;18.23;3.20;;;7.40;99.90;;;;;;4040773;29;20057;-85
2023/05/26 03:34:39;;;;;;;13.43;2.65;;;7.50;99.90;;;;;;4023977;29;20042;-85
2023/05/26 03:36:39;;;;;;;19.23;4.20;;;7.40;99.90;;;;;;4035785;29;20532;-85
2023/05/26 03:38:40;;;;;;;19.85;4.32;;;7.40;99.90;;;;;;4041588;29;20136;-85
2023/05/26 03:40:42;;;;;;;17.23;3.10;;;7.50;99.90;;;;;;4042190;29;20122;-84
2023/05/26 03:42:42;;;;;;;25.73;3.00;;;7.40;99.90;;;;;;4042530;29;20063;-85
2023/05/26 03:44:44;;;;;;;19.65;3.58;;;7.40;99.90;;;;;;4043166;29;20041;-85
2023/05/26 03:46:46;;;;;;;14.85;2.63;;;7.40;99.90;;;;;;4043541;29;20417;-85
2023/05/26 03:48:48;;;;;;;25.02;3.38;;;7.60;99.90;;;;;;4043192;29;20055;-85
2023/05/26 03:50:49;;;;;;;17.67;3.50;;;7.40;99.90;;;;;;4043161;29;20125;-85
2023/05/26 03:52:50;;;;;;;19.33;3.60;;;7.40;99.90;;;;;;4043411;29;20088;-84
2023/05/26 03:54:52;;;;;;;19.25;2.90;;;7.40;99.90;;;;;;4041920;29;20517;-84
2023/05/26 03:56:54;;;;;;;13.90;2.83;;;7.40;99.90;;;;;;4043425;29;20516;-85
2023/05/26 03:58:55;;;;;;;24.50;3.42;;;7.40;99.90;;;;;;4042367;29;20044;-85
2023/05/26 04:00:56;;;;;;;17.33;4.00;;;7.70;99.90;;;;;;4045563;29;20049;-84
2023/05/26 04:02:57;;;;;;;17.10;2.90;;;7.40;99.90;;;;;;4047252;29;20056;-84
2023/05/26 04:05:00;;;;;;;16.58;2.65;;;7.50;99.90;;;;;;4044516;29;20045;-85
2023/05/26 04:07:03;;;;;;;19.08;2.80;;;7.50;99.90;;;;;;4044819;29;20052;-84
2023/05/26 04:09:05;;;;;;;18.80;3.35;;;7.90;99.90;;;;;;4044710;29;20566;-85
2023/05/26 04:11:13;;;;;;;16.05;2.78;;;7.40;99.90;;;;;;4029016;29;20479;-85
2023/05/26 04:13:15;;;;;;;23.00;4.25;;;7.70;99.90;;;;;;4028640;29;20046;-85
2023/05/26 04:15:19;;;;;;;18.35;4.05;;;7.50;99.90;;;;;;4045800;29;20045;-85
2023/05/26 04:17:21;;;;;;;17.00;2.80;;;7.50;99.90;;;;;;4045362;29;20053;-86
2023/05/26 04:19:28;;;;;;;23.13;3.92;;;7.50;99.90;;;;;;4043505;29;20045;-85
2023/05/26 04:21:30;;;;;;;22.08;3.95;;;7.50;99.90;;;;;;4046591;29;20060;-86
2023/05/26 04:23:33;;;;;;;17.80;2.42;;;7.50;99.90;;;;;;4047667;29;20049;-86
2023/05/26 04:25:35;;;;;;;12.52;2.38;;;7.50;99.90;;;;;;4046529;29;20401;-85
2023/05/26 04:27:39;;;;;;;19.98;2.70;;;7.70;99.90;;;;;;4049711;29;20045;-86
2023/05/26 04:29:40;;;;;;;20.88;3.40;;;7.60;99.90;;;;;;4055660;29;20104;-86
2023/05/26 04:31:42;;;;;;;16.75;3.08;;;7.90;99.90;;;;;;4055310;29;20045;-86
2023/05/26 04:33:45;;;;;;;13.88;2.92;;;7.70;99.90;;;;;;4055679;29;20055;-86
2023/05/26 04:35:46;;;;;;;13.65;2.80;;;6.90;99.90;;;;;;4056171;29;20060;-86
2023/05/26 04:37:48;;;;;;;12.73;2.80;;;7.80;99.90;;;;;;4055257;29;20029;-85
2023/05/26 04:39:50;;;;;;;25.88;5.35;;;7.70;99.90;;;;;;4047021;29;20136;-85
2023/05/26 04:41:51;;;;;;;20.60;3.55;;;7.80;99.90;;;;;;4046637;29;20049;-84
2023/05/26 04:43:52;;;;;;;24.20;4.85;;;7.90;99.90;;;;;;4046269;29;20278;-85
2023/05/26 04:45:57;;;;;;;18.92;3.40;;;7.90;99.90;;;;;;4050570;29;20124;-86
2023/05/26 04:48:00;;;;;;;20.00;3.33;;;7.40;99.90;;;;;;4047448;29;20435;-86
2023/05/26 04:50:01;;;;;;;18.23;3.15;;;8.00;99.90;;;;;;4046243;29;20081;-85
2023/05/26 04:52:09;;;;;;;22.17;2.00;;;8.10;99.90;;;;;;4045450;29;20045;-84
2023/05/26 04:54:10;;;;;;;17.40;3.00;;;7.70;99.90;;;;;;4045474;29;20072;-84
2023/05/26 04:56:11;;;;;;;17.45;3.35;;;8.20;99.90;;;;;;4045360;29;20053;-85
2023/05/26 04:58:13;;;;;;;13.43;2.90;;;8.30;99.90;;;;;;4043686;29;20049;-85
2023/05/26 05:00:14;;;;;;;18.08;2.85;;;8.40;99.90;;;;;;4045597;29;20045;-85
2023/05/26 05:02:15;;;;;;;18.63;3.75;;;8.10;99.90;;;;;;4044998;29;20045;-85
2023/05/26 05:04:16;;;;;;;23.05;3.47;;;8.50;99.90;;;;;;4046664;29;20045;-84
2023/05/26 05:06:17;;;;;;;24.60;4.68;;;8.60;99.90;;;;;;4047072;29;20051;-84
2023/05/26 05:08:19;;;;;;;24.75;3.22;;;8.60;99.90;;;;;;4045489;29;20048;-85
2023/05/26 05:10:20;;;;;;;20.35;4.43;;;8.70;99.90;;;;;;4044201;29;20060;-84
2023/05/26 05:12:21;;;;;;;18.58;3.25;;;8.70;99.90;;;;;;4045687;29;20048;-84
2023/05/26 05:14:22;;;;;;;20.58;3.50;;;8.80;99.90;;;;;;4045607;29;20097;-84
2023/05/26 05:16:23;;;;;;;15.30;3.95;;;8.90;99.90;;;;;;4044231;29;20101;-86
2023/05/26 05:18:24;;;;;;;16.30;3.50;;;9.00;99.90;;;;;;4045560;29;20060;-85
2023/05/26 05:20:26;;;;;;;25.10;4.03;;;9.10;99.90;;;;;;4044703;29;20086;-86
2023/05/26 05:22:27;;;;;;;25.60;4.15;;;9.20;99.90;;;;;;4044603;29;20053;-85
2023/05/26 05:24:28;;;;;;;23.52;4.35;;;9.30;99.90;;;;;;4045048;29;20100;-87
2023/05/26 05:26:29;;;;;;;29.48;4.28;;;9.40;99.90;;;;;;4043413;29;20051;-86
2023/05/26 05:28:29;;;;;;;12.20;3.92;;;9.50;99.90;;;;;;4044046;29;20085;-87
2023/05/26 05:30:31;;;;;;;22.55;2.80;;;9.60;99.90;;;;;;4042820;29;20045;-87
2023/05/26 05:32:33;;;;;;;21.13;3.65;;;9.70;99.90;;;;;;4042768;29;20072;-87
2023/05/26 05:34:35;;;;;;;16.98;3.20;;;9.80;99.90;;;;;;4042976;29;20411;-85
2023/05/26 05:36:37;;;;;;;17.23;2.47;;;9.90;99.90;;;;;;4041887;29;20052;-86
2023/05/26 05:38:37;;;;;;;28.55;5.28;;;9.90;99.90;;;;;;4032429;29;20072;-86
2023/05/26 05:40:40;;;;;;;18.58;4.82;;;10.10;99.90;;;;;;4057773;29;20056;-86
2023/05/26 05:42:41;;;;;;;21.70;3.60;;;10.20;99.90;;;;;;4061389;29;20072;-85
2023/05/26 05:44:43;;;;;;;17.88;2.88;;;10.30;99.90;;;;;;4061153;29;20064;-85
2023/05/26 05:46:44;;;;;;;15.07;3.15;;;10.40;99.90;;;;;;4076710;29;20055;-86
2023/05/26 05:48:46;;;;;;;21.92;4.50;;;10.40;99.90;;;;;;4059571;29;20048;-85
2023/05/26 05:50:47;;;;;;;18.33;3.50;;;10.70;99.90;;;;;;4060583;29;20148;-86
2023/05/26 05:52:48;;;;;;;25.52;3.92;;;10.80;99.90;;;;;;4075638;29;20496;-86
2023/05/26 05:54:50;;;;;;;15.32;3.28;;;10.90;99.90;;;;;;4077695;29;20380;-85
2023/05/26 05:56:51;;;;;;;18.25;3.10;;;10.00;99.90;;;;;;4076899;29;20476;-86
2023/05/26 05:58:53;;;;;;;19.65;4.55;;;11.00;99.90;;;;;;4076856;29;20048;-85
2023/05/26 06:00:54;;;;;;;19.05;4.18;;;11.20;99.90;;;;;;4060276;29;20049;-85
2023/05/26 06:02:56;;;;;;;19.35;4.07;;;11.30;99.90;;;;;;4077200;29;20040;-86
2023/05/26 06:04:58;;;;;;;18.08;2.83;;;11.40;99.90;;;;;;4077471;29;20044;-86
2023/05/26 06:07:00;;;;;;;15.98;2.55;;;11.50;99.90;;;;;;4076948;29;20485;-86
2023/05/26 06:09:02;;;;;;;22.50;3.60;;;11.60;99.90;;;;;;4077249;29;20102;-86
2023/05/26 06:11:03;;;;;;;19.80;3.88;;;11.70;99.90;;;;;;4059808;29;20052;-86
2023/05/26 06:13:05;;;;;;;13.70;3.05;;;11.70;99.90;;;;;;4076795;29;20052;-87
2023/05/26 06:15:08;;;;;;;18.52;3.20;;;11.80;99.90;;;;;;4076808;29;20067;-86
2023/05/26 06:17:08;;;;;;;23.27;3.97;;;11.80;99.90;;;;;;4078183;29;20052;-86
2023/05/26 06:19:10;;;;;;;22.83;3.40;;;11.90;99.90;;;;;;4078362;29;20044;-85
2023/05/26 06:21:11;;;;;;;16.05;2.97;;;11.90;99.90;;;;;;4077491;29;20052;-85
2023/05/26 06:23:13;;;;;;;19.58;3.78;;;12.00;99.90;;;;;;4078886;29;20047;-86
2023/05/26 06:25:14;;;;;;;19.00;4.07;;;11.50;99.90;;;;;;4060530;29;20055;-88
2023/05/26 06:27:15;;;;;;;26.27;3.85;;;12.20;99.90;;;;;;4074630;29;20559;-87
2023/05/26 06:29:16;;;;;;;18.13;3.13;;;12.20;99.90;;;;;;4076984;29;20100;-88
2023/05/26 06:31:22;;;;;;;19.73;3.65;;;12.20;99.90;;;;;;4076887;29;20082;-87
2023/05/26 06:33:24;;;;;;;21.92;3.97;;;12.30;99.90;;;;;;4075578;29;20499;-87
2023/05/26 06:35:26;;;;;;;16.98;4.57;;;12.40;99.90;;;;;;4077747;29;20044;-83
2023/05/26 06:37:29;;;;;;;17.52;3.30;;;12.40;99.90;;;;;;4081779;29;20028;-87
2023/05/26 06:39:29;;;;;;;14.23;2.30;;;12.50;99.90;;;;;;4074656;29;20055;-87
2023/05/26 06:41:32;;;;;;;17.50;2.50;;;12.50;99.90;;;;;;4053194;29;20581;-88
2023/05/26 06:43:34;;;;;;;15.00;2.00;;;12.50;99.90;;;;;;4064205;29;20057;-87
2023/05/26 06:45:36;;;;;;;7.38;2.05;;;12.60;99.90;;;;;;4066234;29;20065;-87
2023/05/26 06:47:37;;;;;;;18.00;3.35;;;12.60;99.90;;;;;;4066920;29;20049;-87
2023/05/26 06:49:39;;;;;;;8.23;2.00;;;13.10;99.90;;;;;;4066231;29;20051;-86
2023/05/26 06:51:51;;;;;;;10.95;1.95;;;12.70;99.90;;;;;;4066448;29;20127;-87
2023/05/26 06:53:52;;;;;;;13.40;2.95;;;12.90;99.90;;;;;;4070512;29;20040;-85
2023/05/26 06:55:55;;;;;;;12.07;2.38;;;12.80;99.90;;;;;;4070342;29;20060;-87
2023/05/26 06:57:57;;;;;;;14.82;2.15;;;13.10;99.90;;;;;;4070492;29;20053;-88
2023/05/26 06:59:59;;;;;;;16.00;2.80;;;12.90;99.90;;;;;;4070347;29;20089;-87
2023/05/26 07:01:59;;;;;;;14.68;2.35;;;13.00;99.90;;;;;;4068844;29;20044;-87
2023/05/26 07:04:00;;;;;;;12.57;1.83;;;12.80;99.90;;;;;;4065811;29;20108;-86
2023/05/26 07:06:02;;;;;;;20.67;4.32;;;13.10;99.90;;;;;;4065951;29;20048;-86
2023/05/26 07:08:04;;;;;;;8.98;2.42;;;13.00;99.90;;;;;;4065369;29;20072;-86
2023/05/26 07:10:07;;;;;;;12.02;2.55;;;13.30;99.90;;;;;;4065125;29;20100;-87
2023/05/26 07:12:09;;;;;;;20.00;3.50;;;13.40;99.90;;;;;;4066543;29;20084;-86
2023/05/26 07:14:12;;;;;;;20.67;2.75;;;13.10;99.90;;;;;;4067718;29;20105;-87
2023/05/26 07:16:12;;;;;;;12.00;2.30;;;13.60;99.90;;;;;;4069330;29;20365;-87
2023/05/26 07:18:22;;;;;;;11.55;2.80;;;13.60;99.90;;;;;;4069335;29;20080;-86
2023/05/26 07:20:24;;;;;;;11.70;2.92;;;13.60;99.90;;;;;;4069085;29;20049;-86
2023/05/26 07:22:27;;;;;;;10.00;2.47;;;13.80;99.90;;;;;;4068665;29;20049;-85
2023/05/26 07:24:28;;;;;;;14.48;2.72;;;13.90;99.90;;;;;;4052198;29;20045;-88
2023/05/26 07:26:30;;;;;;;12.70;2.30;;;14.00;99.90;;;;;;4065862;29;20048;-86
2023/05/26 07:28:31;;;;;;;14.23;2.08;;;14.00;99.90;;;;;;4069127;29;20072;-86
2023/05/26 07:30:32;;;;;;;15.95;3.28;;;14.10;99.90;;;;;;4069462;29;20100;-86
2023/05/26 07:32:33;;;;;;;9.45;1.98;;;14.20;99.90;;;;;;4069291;29;20049;-86
2023/05/26 07:34:36;;;;;;;12.32;2.90;;;14.20;99.90;;;;;;4051763;29;20123;-87
2023/05/26 07:36:37;;;;;;;15.45;2.15;;;14.40;99.90;;;;;;4063323;29;20096;-86
2023/05/26 07:38:37;;;;;;;15.02;2.47;;;14.50;99.90;;;;;;4070804;29;20068;-87
2023/05/26 07:40:47;;;;;;;12.63;3.08;;;14.10;99.90;;;;;;4083425;29;20056;-87
2023/05/26 07:42:49;;;;;;;12.50;2.08;;;14.70;99.90;;;;;;4084195;29;20055;-86
2023/05/26 07:44:55;;;;;;;9.90;1.85;;;14.90;99.90;;;;;;4083149;29;20104;-87
2023/05/26 07:46:57;;;;;;;17.65;2.38;;;15.00;99.90;;;;;;4083281;29;20048;-86
2023/05/26 07:48:58;;;;;;;12.20;2.03;;;15.10;99.90;;;;;;4081301;29;20380;-86
2023/05/26 07:51:02;;;;;;;12.68;2.40;;;15.20;99.90;;;;;;4083101;29;20137;-86
2023/05/26 07:53:09;;;;;;;10.07;2.25;;;15.30;99.90;;;;;;4082812;29;20175;-87
2023/05/26 07:55:10;;;;;;;14.50;2.10;;;15.40;99.90;;;;;;4083406;29;20492;-86
2023/05/26 07:57:17;;;;;;;8.25;2.13;;;15.40;99.90;;;;;;4082722;29;20048;-87
2023/05/26 07:59:22;;;;;;;12.48;1.95;;;15.40;99.90;;;;;;4082062;29;20492;-86
2023/05/26 08:01:25;;;;;;;10.20;1.92;;;15.60;99.90;;;;;;4081193;29;20052;-86
2023/05/26 08:03:28;;;;;;;13.57;2.30;;;15.60;99.90;;;;;;4083408;29;20085;-86
2023/05/26 08:05:29;;;;;;;17.55;2.65;;;15.60;99.90;;;;;;4082815;29;20048;-85
2023/05/26 08:07:30;;;;;;;15.60;3.17;;;15.70;99.90;;;;;;4082384;29;20056;-85
2023/05/26 08:09:31;;;;;;;15.00;2.63;;;15.80;99.90;;;;;;4083228;29;20096;-86
2023/05/26 08:11:32;;;;;;;11.38;2.03;;;15.80;99.90;;;;;;4083635;29;20052;-86
2023/05/26 08:13:39;;;;;;;12.15;2.25;;;16.10;99.90;;;;;;4065516;29;20645;-85
2023/05/26 08:15:40;;;;;;;12.85;2.05;;;16.20;99.90;;;;;;4082899;29;20050;-86
2023/05/26 08:17:51;;;;;;;6.90;2.10;;;16.10;99.90;;;;;;4083510;29;20059;-86
2023/05/26 08:19:54;;;;;;;17.10;2.95;;;16.30;99.90;;;;;;4065650;29;20053;-87
2023/05/26 08:21:56;;;;;;;10.50;1.95;;;16.40;99.90;;;;;;4082484;29;20052;-86
2023/05/26 08:23:57;;;;;;;11.48;2.60;;;16.60;99.90;;;;;;4083013;29;20103;-86
2023/05/26 08:25:58;;;;;;;10.00;2.20;;;16.80;99.90;;;;;;4080877;29;20072;-86
2023/05/26 08:27:59;;;;;;;10.02;2.03;;;17.00;99.80;;;;;;4082807;29;20044;-86
2023/05/26 08:30:00;;;;;;;17.48;2.40;;;17.20;99.70;;;;;;4081787;29;20052;-86
2023/05/26 08:32:01;;;;;;;11.70;2.60;;;17.30;99.40;;;;;;4083257;29;20044;-86
2023/05/26 08:34:03;;;;;;;14.15;2.08;;;17.50;99.30;;;;;;4083550;29;20044;-84
2023/05/26 08:36:06;;;;;;;9.35;2.00;;;17.60;99.10;;;;;;4082758;29;20044;-86
2023/05/26 08:38:07;;;;;;;11.02;2.17;;;17.80;98.90;;;;;;4083444;29;20040;-86
2023/05/26 08:40:11;;;;;;;12.20;3.22;;;17.90;98.70;;;;;;4082592;29;20056;-86
2023/05/26 08:42:18;;;;;;;14.65;2.58;;;18.00;98.50;;;;;;4083259;29;20052;-87
2023/05/26 08:44:28;;;;;;;14.07;2.63;;;17.40;98.10;;;;;;4082159;29;20067;-87
2023/05/26 08:46:32;;;;;;;13.93;2.10;;;;;;;;;;4082450;29;20527;-86
2023/05/26 08:48:36;;;;;;;10.25;3.13;;;18.10;97.30;;;;;;4065381;29;20061;-86
2023/05/26 08:50:41;;;;;;;10.40;2.63;;;18.00;97.60;;;;;;4082247;29;20055;-86
2023/05/26 08:52:43;;;;;;;7.80;2.10;;;18.10;97.60;;;;;;4081633;29;20396;-86
2023/05/26 08:54:48;;;;;;;13.80;2.90;;;18.20;97.60;;;;;;4063702;29;20097;-86
2023/05/26 08:56:50;;;;;;;11.93;2.30;;;18.40;97.30;;;;;;4063114;29;20064;-85
2023/05/26 08:58:53;;;;;;;12.70;2.22;;;18.70;97.10;;;;;;4063310;29;20049;-85
2023/05/26 09:00:57;;;;;;;13.20;2.47;;;18.70;96.80;;;;;;4079904;29;20448;-86
2023/05/26 09:03:01;;;;;;;10.05;1.73;;;18.90;96.60;;;;;;4080970;29;20079;-86
2023/05/26 09:05:04;;;;;;;15.68;3.45;;;19.00;96.50;;;;;;4078996;29;20046;-86
2023/05/26 09:07:09;;;;;;;10.98;1.95;;;19.20;96.00;;;;;;4078020;29;20044;-86
2023/05/26 09:09:10;;;;;;;12.05;2.25;;;18.90;95.40;;;;;;4079822;29;20044;-85
2023/05/26 09:11:27;;;;;;;12.15;2.13;;;19.40;95.70;;;;;;4079571;29;20044;-86
2023/05/26 09:13:32;;;;;;;8.40;2.17;;;19.60;94.20;;;;;;4078873;29;20119;-86
2023/05/26 09:15:43;;;;;;;12.30;1.90;;;19.70;95.10;;;;;;4078888;29;20436;-86
2023/05/26 09:17:44;;;;;;;10.45;2.33;;;20.00;94.30;;;;;;4078401;29;20048;-85
2023/05/26 09:19:46;;;;;;;11.13;2.08;;;20.10;94.40;;;;;;4062655;29;20099;-86
2023/05/26 09:21:49;;;;;;;10.38;3.38;;;19.70;93.90;;;;;;4079005;29;20076;-85
2023/05/26 09:23:59;;;;;;;14.48;1.80;;;20.20;94.00;;;;;;4079069;29;20056;-86
2023/05/26 09:26:06;;;;;;;7.25;2.05;;;20.40;93.40;;;;;;4079546;29;20088;-86
2023/05/26 09:28:09;;;;;;;14.23;2.28;;;20.70;93.30;;;;;;4079518;29;20103;-86
2023/05/26 09:30:11;;;;;;;10.73;2.20;;;20.90;93.30;;;;;;4079792;29;20040;-86
2023/05/26 09:32:18;;;;;;;10.32;2.58;;;21.20;92.90;;;;;;4079851;29;20044;-86
2023/05/26 09:34:24;;;;;;;8.55;2.33;;;20.90;91.70;;;;;;4080007;29;20122;-86
2023/05/26 09:36:25;;;;;;;7.90;1.77;;;20.20;91.60;;;;;;4080302;29;20412;-86
2023/05/26 09:38:27;;;;;;;9.13;2.13;;;20.30;92.30;;;;;;4080745;29;20052;-85
2023/05/26 09:40:30;;;;;;;7.15;1.77;;;20.50;92.30;;;;;;4080394;29;20048;-86
2023/05/26 09:42:31;;;;;;;8.13;2.00;;;20.60;91.90;;;;;;4079779;29;20040;-86
2023/05/26 09:44:33;;;;;;;11.40;3.08;;;20.80;92.10;;;;;;4081208;29;20056;-86
2023/05/26 09:46:35;;;;;;;8.63;2.90;;;21.70;92.20;;;;;;4080369;29;20044;-86
2023/05/26 09:48:36;;;;;;;12.48;2.20;;;21.50;91.30;;;;;;4062351;29;20053;-86
2023/05/26 09:50:42;;;;;;;13.65;2.65;;;21.70;90.80;;;;;;4080255;29;20051;-87
2023/05/26 09:52:47;;;;;;;11.75;2.30;;;21.70;90.00;;;;;;4079149;29;20559;-85
2023/05/26 09:54:48;;;;;;;10.88;1.95;;;21.60;89.70;;;;;;4079590;29;20055;-86
2023/05/26 09:57:15;;;;;;;10.07;2.08;;;21.40;90.30;;;;;;4080011;29;20150;-87
2023/05/26 09:59:16;;;;;;;10.68;2.78;;;21.80;89.00;;;;;;4077777;29;20493;-85
2023/05/26 10:01:18;;;;;;;12.98;2.45;;;20.80;89.90;;;;;;4080270;29;20055;-85
2023/05/26 10:03:20;;;;;;;12.70;2.35;;;21.10;90.10;;;;;;4079670;29;20055;-86
2023/05/26 10:05:28;;;;;;;9.98;2.75;;;20.80;89.10;;;;;;4079605;29;20040;-86
2023/05/26 10:07:30;;;;;;;12.63;2.40;;;20.50;86.90;;;;;;4079791;29;20052;-86
2023/05/26 10:09:39;;;;;;;13.70;3.03;;;20.70;89.20;;;;;;4081339;29;20099;-86
2023/05/26 10:11:45;;;;;;;12.35;2.90;;;20.40;88.50;;;;;;4080624;29;20044;-86
2023/05/26 10:13:47;;;;;;;12.05;2.58;;;20.20;88.70;;;;;;4082063;29;20556;-86
2023/05/26 10:15:48;;;;;;;16.35;3.05;;;20.60;90.00;;;;;;4081600;29;20044;-85
2023/05/26 10:17:49;;;;;;;10.18;2.70;;;20.80;89.60;;;;;;4081399;29;20111;-86
2023/05/26 10:19:53;;;;;;;11.05;2.40;;;21.10;88.70;;;;;;4081475;29;20050;-87
2023/05/26 10:22:10;;;;;;;15.65;2.80;;;21.20;86.90;;;;;;4065497;29;20064;-86
2023/05/26 10:24:32;;;;;;;14.77;2.22;;;21.30;85.20;;;;;;4081777;29;20052;-87
2023/05/26 10:27:01;;;;;;;12.65;2.50;;;21.30;84.20;;;;;;4080716;29;20080;-86
2023/05/26 10:29:10;;;;;;;12.25;2.13;;;21.20;85.70;;;;;;4080704;29;20563;-86
2023/05/26 10:31:30;;;;;;;10.57;2.20;;;21.40;85.40;;;;;;4079757;29;20048;-86
2023/05/26 10:33:44;;;;;;;10.15;1.90;;;21.80;83.90;;;;;;4065104;29;20176;-86
2023/05/26 10:35:55;;;;;;;13.25;2.80;;;22.10;84.30;;;;;;4080731;29;20055;-87
2023/05/26 10:38:05;;;;;;;7.05;1.65;;;22.50;83.30;;;;;;4080984;29;20051;-86